To NAV CANADA Home Page Login to a new session Search on AWWS site Feedback and Comments Disclaimer Vers la page française équivalente Tips FAQ What's new on the site To the Forecasts and Observations / NOTAM section To "File a Flight Plan" website Publications and other links Update of the User's profile FIC Telephone Numbers My Weather Data Folder Route Weather Data Regional Weather Data Local Weather Data To the Forecasts and Observations / NOTAM section
Request Generated 02/09/2016 at 02:59:54 UTC . Weather information available at that time is displayed.

METAR/TAF

CARTWRIGHT/NL    

METAR CWCA 090200Z 00000KT 15SM FEW020 M22/M26 A3039 RMK SC2 SLP295
DENSITY ALT MISG=
METAR CWCA 090100Z VRB02KT 15SM FEW020 M24/M27 A3042 RMK SC2 SLP304
DENSITY ALT MISG=
METAR CWCA 090000Z 00000KT 15SM FEW020 M24/M29 A3042 RMK SC2 SLP304
DENSITY ALT MISG=

TAF CYCA 090138Z 0902/0914 ADVISORY OFFSITE 31005KT P6SM FEW020
RMK NXT FCST BY 090800Z=
Your time UTC time
Weather data provided by Environment Canada and NAV CANADA